Duluth, Minnesota
Current Conditions -  °F | °C
As of 7:55 PM on Friday 24 Oct 2014 (Local Time) from KDLH Reporting Station
Clear Clear  
Wind Chill: 59°   Ceiling: Unl
Heat Index: 59°   Visibility: 10mi
Dew Point: 50°   Wind: 13mph
Humidity: 72%   Direction: 230°SW
Pressure: 29.76"   Gusts: NA
Location:  46.79°N, 92.09°W
Report Text: KDLH 250055Z 23011KT 10SM CLR 15/10 A2976 RMK AO2 SLP083 T01500100
Loading
Personal Weather Stations






























Interactive Weather Map New forecast layout! Learn more

10-Day Weather Forecast

Advertisements
Track Severe Weather on mobile